Alexandria, Missouri
Current Conditions -  °F | °C
As of 10:55 AM on Saturday 22 Nov 2014 (Local Time) from KEOK Reporting Station
Overcast Overcast  
Wind Chill: 13°   Ceiling: 1900
Heat Index: 13°   Visibility: 10mi
Dew Point:   Wind: 14mph
Humidity: 77%   Direction: 210°SSW
Pressure: 29.93"   Gusts: NA
Location:  40.36°N, 91.46°W
Report Text: KEOK 221655Z AUTO 21012KT 10SM OVC019 13/09 A2993 RMK AO2
Loading
Personal Weather Stations






























Interactive Weather Map New forecast layout! Learn more

10-Day Weather Forecast

Advertisements
Track Severe Weather on mobile